createdAt,value
2023-12-08T00:01:29.770Z,0
2023-12-08T00:02:31.701Z,0
2023-12-08T00:03:32.773Z,0
2023-12-08T00:04:34.692Z,0
2023-12-08T00:05:35.846Z,0
2023-12-08T00:06:37.724Z,0
2023-12-08T00:07:39.029Z,0
2023-12-08T00:08:40.777Z,0
2023-12-08T00:09:42.089Z,0
2023-12-08T00:10:43.825Z,0
2023-12-08T00:11:45.062Z,0
2023-12-08T00:12:46.740Z,0
2023-12-08T00:13:48.048Z,0
2023-12-08T00:14:49.795Z,0
2023-12-08T00:15:51.075Z,0
2023-12-08T00:16:52.703Z,0
2023-12-08T00:17:54.204Z,0
2023-12-08T00:18:54.842Z,0
2023-12-08T00:19:56.079Z,0
2023-12-08T00:20:57.686Z,0
2023-12-08T00:22:29.013Z,0
2023-12-08T00:23:30.792Z,0
2023-12-08T00:24:32.270Z,0
2023-12-08T00:25:33.790Z,0
2023-12-08T00:26:35.331Z,0
2023-12-08T00:27:37.780Z,0
2023-12-08T00:28:39.250Z,0
2023-12-08T00:29:40.801Z,0
2023-12-08T00:30:42.297Z,0
2023-12-08T00:31:43.787Z,0
2023-12-08T00:32:45.266Z,0
2023-12-08T00:33:46.387Z,0
2023-12-08T00:34:47.262Z,0
2023-12-08T00:35:49.142Z,0
2023-12-08T00:36:50.325Z,0
2023-12-08T00:37:51.811Z,0
2023-12-08T00:38:52.815Z,0
2023-12-08T00:39:54.158Z,0
2023-12-08T00:40:55.685Z,0
2023-12-08T00:42:28.260Z,0
2023-12-08T00:43:29.635Z,0
2023-12-08T00:44:30.774Z,0
2023-12-08T00:45:32.213Z,0
2023-12-08T00:46:33.761Z,0
2023-12-08T00:47:35.371Z,0
2023-12-08T00:48:36.841Z,0
2023-12-08T00:49:38.717Z,0
2023-12-08T00:50:39.765Z,0
2023-12-08T00:51:41.641Z,0
2023-12-08T00:52:42.772Z,0
2023-12-08T00:53:43.665Z,0
2023-12-08T00:54:45.087Z,0
2023-12-08T00:55:46.701Z,0
2023-12-08T00:56:48.064Z,0
2023-12-08T00:57:49.788Z,0
2023-12-08T00:58:50.996Z,0
2023-12-08T00:59:52.796Z,0
2023-12-08T01:00:54.050Z,0
2023-12-08T01:01:55.660Z,0
2023-12-08T01:02:56.890Z,0
2023-12-08T01:04:28.612Z,0
2023-12-08T01:05:29.183Z,0
2023-12-08T01:06:30.711Z,0
2023-12-08T01:07:32.008Z,0
2023-12-08T01:08:33.727Z,0
2023-12-08T01:09:34.760Z,0
2023-12-08T01:10:36.144Z,0
2023-12-08T01:11:36.801Z,0
2023-12-08T01:12:38.401Z,0
2023-12-08T01:13:40.087Z,0
2023-12-08T01:14:41.579Z,0
2023-12-08T01:15:43.548Z,0
2023-12-08T01:16:45.012Z,0
2023-12-08T01:17:46.629Z,0
2023-12-08T01:18:48.176Z,0
2023-12-08T01:19:49.925Z,0
2023-12-08T01:20:51.063Z,0
2023-12-08T01:21:52.821Z,0
2023-12-08T01:22:54.251Z,0
2023-12-08T01:23:55.688Z,0
2023-12-08T01:24:56.639Z,0
2023-12-08T01:26:29.785Z,0
2023-12-08T01:27:31.664Z,0
2023-12-08T01:28:33.009Z,0
2023-12-08T01:29:34.755Z,0
2023-12-08T01:30:35.825Z,0
2023-12-08T01:31:36.415Z,0
2023-12-08T01:32:37.999Z,0
2023-12-08T01:33:39.089Z,0
2023-12-08T01:34:40.776Z,0
2023-12-08T01:35:42.151Z,0
2023-12-08T01:36:44.396Z,0
2023-12-08T01:37:44.389Z,0
2023-12-08T01:38:46.048Z,0
2023-12-08T01:39:47.031Z,0
2023-12-08T01:40:48.546Z,0
2023-12-08T01:41:50.197Z,0
2023-12-08T01:42:51.762Z,0
2023-12-08T01:43:53.011Z,0
2023-12-08T01:44:54.858Z,0
2023-12-08T01:45:56.513Z,0
2023-12-08T01:47:30.401Z,0
2023-12-08T01:48:31.354Z,0
2023-12-08T01:49:32.887Z,0
2023-12-08T01:50:34.297Z,0
2023-12-08T01:51:35.836Z,0
2023-12-08T01:52:36.415Z,0
2023-12-08T01:53:38.004Z,0
2023-12-08T01:54:39.011Z,0
2023-12-08T01:55:40.755Z,0
2023-12-08T01:56:42.151Z,0
2023-12-08T01:57:42.783Z,0
2023-12-08T01:58:44.082Z,0
2023-12-08T01:59:45.956Z,0
2023-12-08T02:00:47.282Z,0
2023-12-08T02:01:49.123Z,0
2023-12-08T02:02:51.011Z,0
2023-12-08T02:03:52.721Z,0
2023-12-08T02:04:53.827Z,0
2023-12-08T02:05:54.636Z,0
2023-12-08T02:07:27.573Z,0
2023-12-08T02:08:28.811Z,0
2023-12-08T02:09:29.355Z,0
2023-12-08T02:10:30.616Z,0
2023-12-08T02:11:32.204Z,0
2023-12-08T02:12:33.266Z,0
2023-12-08T02:13:34.822Z,0
2023-12-08T02:14:36.095Z,0
2023-12-08T02:15:37.749Z,0
2023-12-08T02:16:39.273Z,0
2023-12-08T02:17:40.495Z,0
2023-12-08T02:18:41.855Z,0
2023-12-08T02:19:43.498Z,0
2023-12-08T02:20:44.932Z,0
2023-12-08T02:21:46.257Z,0
2023-12-08T02:22:48.184Z,0
2023-12-08T02:23:49.915Z,0
2023-12-08T02:24:51.627Z,0
2023-12-08T02:25:52.748Z,0
2023-12-08T02:26:53.676Z,0
2023-12-08T02:27:55.001Z,0
2023-12-08T02:29:26.781Z,0
2023-12-08T02:30:28.067Z,0
2023-12-08T02:31:29.732Z,0
2023-12-08T02:32:31.198Z,0
2023-12-08T02:33:31.926Z,0
2023-12-08T02:34:33.062Z,0
2023-12-08T02:35:33.997Z,0
2023-12-08T02:36:35.910Z,0
2023-12-08T02:37:37.450Z,0
2023-12-08T02:38:39.020Z,0
2023-12-08T02:39:39.786Z,0
2023-12-08T02:40:41.070Z,0
2023-12-08T02:41:42.731Z,0
2023-12-08T02:42:44.015Z,0
2023-12-08T02:43:45.702Z,0
2023-12-08T02:44:47.079Z,0
2023-12-08T02:45:48.502Z,0
2023-12-08T02:46:50.634Z,0
2023-12-08T02:47:52.106Z,0
2023-12-08T02:48:55.379Z,0
2023-12-08T02:49:55.026Z,0
2023-12-08T02:51:26.796Z,0
2023-12-08T02:52:28.425Z,0
2023-12-08T02:53:30.067Z,0
2023-12-08T02:54:31.625Z,0
2023-12-08T02:55:32.795Z,0
2023-12-08T02:56:33.355Z,0
2023-12-08T02:57:34.923Z,0
2023-12-08T02:58:36.786Z,0
2023-12-08T02:59:38.765Z,0
2023-12-08T03:00:40.298Z,0
2023-12-08T03:01:41.799Z,0
2023-12-08T03:02:42.411Z,0
2023-12-08T03:03:44.066Z,0
2023-12-08T03:04:45.087Z,0
2023-12-08T03:05:46.947Z,0
2023-12-08T03:06:47.994Z,0
2023-12-08T03:07:49.635Z,0
2023-12-08T03:08:51.094Z,0
2023-12-08T03:09:52.796Z,0
2023-12-08T03:10:53.978Z,0
2023-12-08T03:11:55.658Z,0
2023-12-08T03:13:27.076Z,0
2023-12-08T03:14:28.907Z,0
2023-12-08T03:15:30.033Z,0
2023-12-08T03:16:31.877Z,0
2023-12-08T03:17:33.156Z,0
2023-12-08T03:18:35.094Z,0
2023-12-08T03:19:36.083Z,0
2023-12-08T03:20:37.813Z,0
2023-12-08T03:21:38.286Z,0
2023-12-08T03:22:39.727Z,0
2023-12-08T03:23:40.849Z,0
2023-12-08T03:24:42.787Z,0
2023-12-08T03:25:44.264Z,0
2023-12-08T03:26:45.780Z,0
2023-12-08T03:27:47.074Z,0
2023-12-08T03:28:48.248Z,0
2023-12-08T03:29:48.921Z,0
2023-12-08T03:30:50.466Z,0
2023-12-08T03:31:51.546Z,0
2023-12-08T03:32:53.511Z,0
2023-12-08T03:33:54.708Z,0
2023-12-08T03:35:27.791Z,0
2023-12-08T03:36:29.278Z,0
2023-12-08T03:37:30.760Z,0
2023-12-08T03:38:31.781Z,0
2023-12-08T03:39:33.749Z,0
2023-12-08T03:40:35.275Z,0
2023-12-08T03:41:36.787Z,0
2023-12-08T03:42:38.247Z,0
2023-12-08T03:43:40.048Z,0
2023-12-08T03:44:41.525Z,0
2023-12-08T03:45:42.717Z,0
2023-12-08T03:46:44.025Z,0
2023-12-08T03:47:45.753Z,0
2023-12-08T03:48:47.070Z,0
2023-12-08T03:49:48.213Z,0
2023-12-08T03:50:49.246Z,0
2023-12-08T03:51:51.096Z,0
2023-12-08T03:52:52.250Z,0
2023-12-08T03:53:52.847Z,0
2023-12-08T03:54:53.612Z,0
2023-12-08T03:55:54.121Z,0
2023-12-08T03:57:27.081Z,0
2023-12-08T03:58:28.280Z,0
2023-12-08T03:59:29.685Z,0
2023-12-08T04:00:30.778Z,0
2023-12-08T04:01:32.608Z,0
2023-12-08T04:02:33.893Z,0
2023-12-08T04:03:35.801Z,0
2023-12-08T04:04:36.872Z,0
2023-12-08T04:05:38.746Z,0
2023-12-08T04:06:39.162Z,0
2023-12-08T04:07:39.865Z,0
2023-12-08T04:08:41.314Z,0
2023-12-08T04:09:42.762Z,0
2023-12-08T04:10:44.770Z,0
2023-12-08T04:11:45.210Z,0
2023-12-08T04:12:46.767Z,0
2023-12-08T04:13:47.769Z,0
2023-12-08T04:14:49.547Z,0
2023-12-08T04:15:51.118Z,0
2023-12-08T04:16:52.767Z,0
2023-12-08T04:17:54.057Z,0
2023-12-08T04:19:26.855Z,0
2023-12-08T04:20:28.273Z,0
2023-12-08T04:21:29.772Z,0
2023-12-08T04:22:31.239Z,0
2023-12-08T04:23:32.669Z,0
2023-12-08T04:24:33.746Z,0
2023-12-08T04:25:34.642Z,0
2023-12-08T04:26:36.078Z,0
2023-12-08T04:27:37.481Z,0
2023-12-08T04:28:38.730Z,0
2023-12-08T04:29:40.616Z,0
2023-12-08T04:30:41.800Z,0
2023-12-08T04:31:42.428Z,0
2023-12-08T04:32:43.964Z,0
2023-12-08T04:33:45.029Z,0
2023-12-08T04:34:46.863Z,0
2023-12-08T04:35:48.274Z,0
2023-12-08T04:36:49.803Z,0
2023-12-08T04:37:51.247Z,0
2023-12-08T04:38:52.775Z,0
2023-12-08T04:39:54.062Z,0
2023-12-08T04:41:25.127Z,0
2023-12-08T04:42:26.703Z,0
2023-12-08T04:43:27.989Z,0
2023-12-08T04:44:29.473Z,0
2023-12-08T04:45:30.576Z,0
2023-12-08T04:46:32.554Z,0
2023-12-08T04:47:34.173Z,0
2023-12-08T04:48:36.068Z,0
2023-12-08T04:49:39.388Z,0
2023-12-08T04:50:38.782Z,0
2023-12-08T04:51:39.545Z,0
2023-12-08T04:52:41.071Z,0
2023-12-08T04:53:42.602Z,0
2023-12-08T04:54:44.449Z,0
2023-12-08T04:55:45.481Z,0
2023-12-08T04:56:46.626Z,0
2023-12-08T04:57:48.121Z,0
2023-12-08T04:58:49.587Z,0
2023-12-08T04:59:50.980Z,0
2023-12-08T05:00:52.473Z,0
2023-12-08T05:01:53.703Z,0
2023-12-08T05:03:26.843Z,0
2023-12-08T05:04:28.274Z,0
2023-12-08T05:05:30.080Z,0
2023-12-08T05:06:31.353Z,0
2023-12-08T05:07:32.289Z,0
2023-12-08T05:08:33.894Z,0
2023-12-08T05:09:35.282Z,0
2023-12-08T05:10:36.748Z,0
2023-12-08T05:11:37.762Z,0
2023-12-08T05:12:39.761Z,0
2023-12-08T05:13:40.419Z,0
2023-12-08T05:14:41.947Z,0
2023-12-08T05:15:43.440Z,0
2023-12-08T05:16:45.241Z,0
2023-12-08T05:17:45.908Z,0
2023-12-08T05:18:47.727Z,0
2023-12-08T05:19:49.290Z,0
2023-12-08T05:20:49.926Z,0
2023-12-08T05:21:50.367Z,0
2023-12-08T05:22:50.966Z,0
2023-12-08T05:23:52.127Z,0
2023-12-08T05:25:25.289Z,0
2023-12-08T05:26:27.083Z,0
2023-12-08T05:27:28.619Z,0
2023-12-08T05:28:30.077Z,0
2023-12-08T05:29:31.857Z,0
2023-12-08T05:30:33.266Z,0
2023-12-08T05:31:34.769Z,0
2023-12-08T05:32:36.283Z,0
2023-12-08T05:33:37.906Z,0
2023-12-08T05:34:39.289Z,0
2023-12-08T05:35:40.794Z,0
2023-12-08T05:36:42.176Z,0
2023-12-08T05:37:43.737Z,0
2023-12-08T05:38:44.672Z,0
2023-12-08T05:39:46.039Z,0
2023-12-08T05:40:47.513Z,0
2023-12-08T05:41:49.301Z,0
2023-12-08T05:42:50.762Z,0
2023-12-08T05:43:51.703Z,0
2023-12-08T05:44:53.001Z,0
2023-12-08T05:46:24.784Z,0
2023-12-08T05:47:26.838Z,0
2023-12-08T05:48:28.260Z,0
2023-12-08T05:49:29.760Z,0
2023-12-08T05:50:30.221Z,0
2023-12-08T05:51:31.544Z,0
2023-12-08T05:52:33.053Z,0
2023-12-08T05:53:34.271Z,0
2023-12-08T05:54:35.613Z,0
2023-12-08T05:55:36.136Z,0
2023-12-08T05:56:37.516Z,0
2023-12-08T05:57:39.286Z,0
2023-12-08T05:58:40.244Z,0
2023-12-08T05:59:41.618Z,0
2023-12-08T06:00:42.759Z,0
2023-12-08T06:01:44.224Z,0
2023-12-08T06:02:45.780Z,0
2023-12-08T06:03:47.639Z,0
2023-12-08T06:04:48.203Z,0
2023-12-08T06:05:49.682Z,0
2023-12-08T06:06:51.118Z,0
2023-12-08T06:07:52.597Z,0
2023-12-08T06:09:25.779Z,0
2023-12-08T06:10:27.561Z,0
2023-12-08T06:11:28.104Z,0
2023-12-08T06:12:29.513Z,0
2023-12-08T06:13:31.454Z,0
2023-12-08T06:14:32.762Z,0
2023-12-08T06:15:33.808Z,0
2023-12-08T06:16:34.367Z,0
2023-12-08T06:17:36.040Z,0
2023-12-08T06:18:37.234Z,0
2023-12-08T06:19:38.753Z,0
2023-12-08T06:20:40.083Z,0
2023-12-08T06:21:41.724Z,0
2023-12-08T06:22:43.019Z,0
2023-12-08T06:23:44.697Z,0
2023-12-08T06:24:46.042Z,0
2023-12-08T06:25:47.722Z,0
2023-12-08T06:26:49.099Z,0
2023-12-08T06:27:50.737Z,0
2023-12-08T06:28:52.120Z,0
2023-12-08T06:30:24.882Z,0
2023-12-08T06:31:26.251Z,0
2023-12-08T06:32:27.896Z,0
2023-12-08T06:33:29.350Z,0
2023-12-08T06:34:30.857Z,0
2023-12-08T06:35:32.275Z,0
2023-12-08T06:36:33.768Z,0
2023-12-08T06:37:35.270Z,0
2023-12-08T06:38:36.774Z,0
2023-12-08T06:39:38.281Z,0
2023-12-08T06:40:39.797Z,0
2023-12-08T06:41:41.359Z,0
2023-12-08T06:42:42.750Z,0
2023-12-08T06:43:44.347Z,0
2023-12-08T06:44:45.868Z,0
2023-12-08T06:45:47.294Z,0
2023-12-08T06:46:48.855Z,0
2023-12-08T06:47:50.638Z,0
2023-12-08T06:48:52.189Z,0
2023-12-08T06:50:24.154Z,0
2023-12-08T06:51:25.770Z,0
2023-12-08T06:52:27.753Z,0
2023-12-08T06:53:28.725Z,0
2023-12-08T06:54:29.990Z,0
2023-12-08T06:55:31.607Z,0
2023-12-08T06:56:32.798Z,0
2023-12-08T06:57:34.736Z,0
2023-12-08T06:58:35.750Z,0
2023-12-08T07:00:08.077Z,0
2023-12-08T07:01:41.162Z,0
2023-12-08T07:02:42.775Z,0
2023-12-08T07:03:43.630Z,0
2023-12-08T07:04:45.225Z,0
2023-12-08T07:05:49.143Z,0
2023-12-08T07:06:48.255Z,0
2023-12-08T07:07:49.564Z,0
2023-12-08T07:08:51.203Z,0
2023-12-08T07:10:23.799Z,0
2023-12-08T07:11:25.263Z,0
2023-12-08T07:12:27.120Z,0
2023-12-08T07:13:28.737Z,0
2023-12-08T07:14:30.073Z,0
2023-12-08T07:15:30.714Z,0
2023-12-08T07:16:32.593Z,0
2023-12-08T07:17:34.188Z,0
2023-12-08T07:18:36.277Z,0
2023-12-08T07:19:37.631Z,0
2023-12-08T07:20:38.619Z,0
2023-12-08T07:21:40.247Z,0
2023-12-08T07:22:41.762Z,0
2023-12-08T07:23:43.670Z,0
2023-12-08T07:24:44.163Z,0
2023-12-08T07:25:45.354Z,0
2023-12-08T07:26:46.806Z,0
2023-12-08T07:27:48.065Z,0
2023-12-08T07:28:49.720Z,5.625
2023-12-08T07:29:51.084Z,5.625
2023-12-08T07:31:22.944Z,5.625
2023-12-08T07:32:24.007Z,5.625
2023-12-08T07:33:25.868Z,5.625
2023-12-08T07:34:26.827Z,5.625
2023-12-08T07:35:28.260Z,5.625
2023-12-08T07:36:29.239Z,5.625
2023-12-08T07:37:31.047Z,5.625
2023-12-08T07:38:32.771Z,5.625
2023-12-08T07:39:34.252Z,5.625
2023-12-08T07:40:35.805Z,5.625
2023-12-08T07:41:37.229Z,5.625
2023-12-08T07:42:38.725Z,5.625
2023-12-08T07:43:40.315Z,5.625
2023-12-08T07:44:41.752Z,5.625
2023-12-08T07:45:43.527Z,5.625
2023-12-08T07:46:45.694Z,5.625
2023-12-08T07:47:49.793Z,5.625
2023-12-08T07:48:48.939Z,11.25
2023-12-08T07:49:50.311Z,11.25
2023-12-08T07:50:52.401Z,11.25
2023-12-08T07:52:25.109Z,11.25
2023-12-08T07:53:25.791Z,11.25
2023-12-08T07:54:27.520Z,11.25
2023-12-08T07:55:29.106Z,11.25
2023-12-08T07:56:30.709Z,11.25
2023-12-08T07:57:32.444Z,11.25
2023-12-08T07:58:33.482Z,11.25
2023-12-08T07:59:35.071Z,11.25
2023-12-08T08:00:36.692Z,11.25
2023-12-08T08:01:38.115Z,11.25
2023-12-08T08:02:39.284Z,11.25
2023-12-08T08:03:40.782Z,16.875
2023-12-08T08:04:42.245Z,16.875
2023-12-08T08:05:43.844Z,16.875
2023-12-08T08:06:45.317Z,16.875
2023-12-08T08:07:46.753Z,16.875
2023-12-08T08:08:48.246Z,16.875
2023-12-08T08:09:50.140Z,16.875
2023-12-08T08:10:51.805Z,22.5
2023-12-08T08:12:24.042Z,22.5
2023-12-08T08:13:25.708Z,22.5
2023-12-08T08:14:29.306Z,22.5
2023-12-08T08:15:29.181Z,22.5
2023-12-08T08:16:30.955Z,22.5
2023-12-08T08:17:32.099Z,22.5
2023-12-08T08:18:34.153Z,16.875
2023-12-08T08:19:35.033Z,16.875
2023-12-08T08:20:36.955Z,16.875
2023-12-08T08:21:38.135Z,16.875
2023-12-08T08:22:39.810Z,16.875
2023-12-08T08:23:41.334Z,16.875
2023-12-08T08:24:42.775Z,16.875
2023-12-08T08:25:44.254Z,22.5
2023-12-08T08:26:45.819Z,16.875
2023-12-08T08:27:47.299Z,16.875
2023-12-08T08:28:48.768Z,22.5
2023-12-08T08:29:50.327Z,22.5
2023-12-08T08:30:52.142Z,22.5
2023-12-08T08:32:23.773Z,28.125
2023-12-08T08:33:25.911Z,28.125
2023-12-08T08:34:26.821Z,28.125
2023-12-08T08:35:28.260Z,33.75
2023-12-08T08:36:29.740Z,33.75
2023-12-08T08:37:31.526Z,39.375
2023-12-08T08:38:32.845Z,39.375
2023-12-08T08:39:34.250Z,39.375
2023-12-08T08:40:35.757Z,39.375
2023-12-08T08:41:37.288Z,39.375
2023-12-08T08:42:38.781Z,39.375
2023-12-08T08:43:40.261Z,39.375
2023-12-08T08:44:41.780Z,39.375
2023-12-08T08:45:42.294Z,39.375
2023-12-08T08:46:43.701Z,39.375
2023-12-08T08:47:45.258Z,39.375
2023-12-08T08:48:46.807Z,39.375
2023-12-08T08:49:48.390Z,39.375
2023-12-08T08:50:50.697Z,33.75
2023-12-08T08:51:51.749Z,33.75
2023-12-08T08:53:23.898Z,33.75
2023-12-08T08:54:25.641Z,33.75
2023-12-08T08:55:27.494Z,33.75
2023-12-08T08:56:29.058Z,33.75
2023-12-08T08:57:30.693Z,33.75
2023-12-08T08:58:31.855Z,33.75
2023-12-08T08:59:32.552Z,33.75
2023-12-08T09:00:33.557Z,33.75
2023-12-08T09:01:35.007Z,33.75
2023-12-08T09:02:36.748Z,33.75
2023-12-08T09:03:38.362Z,33.75
2023-12-08T09:04:40.197Z,33.75
2023-12-08T09:05:41.897Z,28.125
2023-12-08T09:06:42.698Z,28.125
2023-12-08T09:07:44.019Z,28.125
2023-12-08T09:08:45.817Z,33.75
2023-12-08T09:09:48.041Z,33.75
2023-12-08T09:10:49.082Z,33.75
2023-12-08T09:11:50.069Z,33.75
2023-12-08T09:13:23.208Z,33.75
2023-12-08T09:14:24.310Z,33.75
2023-12-08T09:15:25.777Z,33.75
2023-12-08T09:16:27.268Z,33.75
2023-12-08T09:17:28.798Z,33.75
2023-12-08T09:18:30.440Z,33.75
2023-12-08T09:19:31.824Z,28.125
2023-12-08T09:20:33.290Z,33.75
2023-12-08T09:21:42.365Z,33.75
2023-12-08T09:22:36.230Z,33.75
2023-12-08T09:23:37.273Z,28.125
2023-12-08T09:24:37.944Z,28.125
2023-12-08T09:25:39.114Z,28.125
2023-12-08T09:26:40.713Z,28.125
2023-12-08T09:27:42.310Z,28.125
2023-12-08T09:28:43.791Z,28.125
2023-12-08T09:29:45.098Z,28.125
2023-12-08T09:30:46.916Z,28.125
2023-12-08T09:31:48.356Z,28.125
2023-12-08T09:32:49.915Z,28.125
2023-12-08T09:33:51.279Z,33.75
2023-12-08T09:35:23.589Z,33.75
2023-12-08T09:36:25.230Z,33.75
2023-12-08T09:37:35.438Z,33.75
2023-12-08T09:38:33.220Z,28.125
2023-12-08T09:39:29.681Z,28.125
2023-12-08T09:40:31.029Z,28.125
2023-12-08T09:41:32.722Z,33.75
2023-12-08T09:42:34.087Z,33.75
2023-12-08T09:43:36.296Z,33.75
2023-12-08T09:44:37.421Z,33.75
2023-12-08T09:45:38.557Z,33.75
2023-12-08T09:46:40.760Z,33.75
2023-12-08T09:47:42.310Z,33.75
2023-12-08T09:48:43.668Z,33.75
2023-12-08T09:49:44.730Z,33.75
2023-12-08T09:50:46.049Z,39.375
2023-12-08T09:51:47.727Z,45
2023-12-08T09:52:49.124Z,45
2023-12-08T09:53:51.103Z,45
2023-12-08T09:55:23.737Z,45
2023-12-08T09:56:25.399Z,39.375
2023-12-08T09:57:27.120Z,39.375
2023-12-08T09:58:28.767Z,33.75
2023-12-08T09:59:30.337Z,39.375
2023-12-08T10:00:31.767Z,39.375
2023-12-08T10:01:33.234Z,39.375
2023-12-08T10:02:34.788Z,39.375
2023-12-08T10:03:36.324Z,39.375
2023-12-08T10:04:37.771Z,39.375
2023-12-08T10:05:39.339Z,39.375
2023-12-08T10:06:40.005Z,39.375
2023-12-08T10:07:41.513Z,39.375
2023-12-08T10:08:42.722Z,39.375
2023-12-08T10:09:44.329Z,39.375
2023-12-08T10:10:46.130Z,39.375
2023-12-08T10:11:47.761Z,39.375
2023-12-08T10:12:49.259Z,45
2023-12-08T10:13:50.845Z,45
2023-12-08T10:15:22.623Z,45
2023-12-08T10:16:23.994Z,45
2023-12-08T10:17:26.246Z,45
2023-12-08T10:18:27.366Z,45
2023-12-08T10:19:28.653Z,45
2023-12-08T10:20:29.760Z,50.625
2023-12-08T10:21:31.214Z,50.625
2023-12-08T10:22:32.734Z,50.625
2023-12-08T10:23:34.242Z,50.625
2023-12-08T10:24:35.790Z,50.625
2023-12-08T10:25:37.260Z,50.625
2023-12-08T10:26:38.805Z,56.25
2023-12-08T10:27:40.241Z,56.25
2023-12-08T10:28:41.828Z,61.875
2023-12-08T10:29:43.084Z,61.875
2023-12-08T10:30:44.781Z,67.5
2023-12-08T10:31:46.646Z,67.5
2023-12-08T10:32:48.043Z,67.5
2023-12-08T10:33:49.651Z,61.875
2023-12-08T10:35:22.607Z,56.25
2023-12-08T10:36:23.777Z,56.25
2023-12-08T10:37:25.871Z,56.25
2023-12-08T10:38:26.741Z,56.25
2023-12-08T10:39:27.659Z,56.25
2023-12-08T10:40:29.060Z,56.25
2023-12-08T10:41:30.571Z,61.875
2023-12-08T10:42:32.087Z,61.875
2023-12-08T10:43:33.537Z,61.875
2023-12-08T10:44:35.888Z,56.25
2023-12-08T10:45:36.499Z,61.875
2023-12-08T10:46:38.224Z,67.5
2023-12-08T10:47:39.841Z,78.75
2023-12-08T10:48:40.825Z,78.75
2023-12-08T10:49:42.067Z,84.375
2023-12-08T10:50:43.709Z,78.75
2023-12-08T10:51:44.351Z,73.125
2023-12-08T10:52:45.338Z,67.5
2023-12-08T10:53:46.617Z,61.875
2023-12-08T10:54:48.073Z,67.5
2023-12-08T10:55:50.409Z,67.5
2023-12-08T10:57:22.587Z,67.5
2023-12-08T10:58:24.050Z,67.5
2023-12-08T10:59:25.732Z,67.5
2023-12-08T11:00:26.195Z,73.125
2023-12-08T11:01:26.864Z,73.125
2023-12-08T11:02:28.500Z,67.5
2023-12-08T11:03:29.274Z,67.5
2023-12-08T11:04:30.888Z,67.5
2023-12-08T11:05:32.081Z,73.125
2023-12-08T11:06:33.840Z,73.125
2023-12-08T11:07:36.230Z,73.125
2023-12-08T11:08:37.541Z,73.125
2023-12-08T11:09:39.013Z,78.75
2023-12-08T11:10:40.840Z,78.75
2023-12-08T11:11:42.015Z,73.125
2023-12-08T11:12:43.731Z,73.125
2023-12-08T11:13:45.245Z,73.125
2023-12-08T11:14:46.065Z,73.125
2023-12-08T11:15:47.587Z,67.5
2023-12-08T11:16:48.840Z,67.5
2023-12-08T11:18:21.318Z,67.5
2023-12-08T11:19:24.558Z,67.5
2023-12-08T11:20:24.474Z,67.5
2023-12-08T11:21:25.472Z,61.875
2023-12-08T11:22:26.517Z,56.25
2023-12-08T11:23:28.317Z,56.25
2023-12-08T11:24:29.741Z,61.875
2023-12-08T11:25:31.644Z,61.875
2023-12-08T11:26:32.772Z,61.875
2023-12-08T11:27:34.642Z,61.875
2023-12-08T11:28:36.018Z,67.5
2023-12-08T11:29:37.669Z,61.875
2023-12-08T11:30:38.189Z,61.875
2023-12-08T11:31:39.513Z,61.875
2023-12-08T11:32:41.825Z,61.875
2023-12-08T11:33:42.885Z,61.875
2023-12-08T11:34:44.747Z,61.875
2023-12-08T11:35:45.403Z,61.875
2023-12-08T11:36:46.780Z,61.875
2023-12-08T11:37:48.060Z,61.875
2023-12-08T11:38:51.416Z,56.25
2023-12-08T11:40:23.049Z,56.25
2023-12-08T11:41:24.720Z,61.875
2023-12-08T11:42:25.889Z,61.875
2023-12-08T11:43:27.264Z,61.875
2023-12-08T11:44:28.760Z,61.875
2023-12-08T11:45:30.434Z,67.5
2023-12-08T11:46:31.815Z,67.5
2023-12-08T11:47:33.351Z,67.5
2023-12-08T11:48:34.885Z,67.5
2023-12-08T11:49:36.324Z,67.5
2023-12-08T11:50:37.846Z,67.5
2023-12-08T11:51:38.296Z,67.5
2023-12-08T11:52:39.897Z,67.5
2023-12-08T11:53:41.059Z,67.5
2023-12-08T11:54:47.962Z,73.125
2023-12-08T11:55:44.025Z,73.125
2023-12-08T11:56:44.169Z,73.125
2023-12-08T11:57:45.515Z,73.125
2023-12-08T11:58:47.478Z,73.125
2023-12-08T11:59:48.606Z,73.125
2023-12-08T12:00:49.051Z,73.125
2023-12-08T12:02:20.429Z,73.125
2023-12-08T12:03:21.332Z,73.125
2023-12-08T12:04:21.922Z,67.5
2023-12-08T12:05:23.330Z,67.5
2023-12-08T12:06:25.643Z,73.125
2023-12-08T12:07:26.524Z,78.75
2023-12-08T12:08:26.964Z,84.375
2023-12-08T12:09:28.648Z,84.375
2023-12-08T12:10:30.600Z,84.375
2023-12-08T12:11:36.417Z,84.375
2023-12-08T12:12:34.769Z,84.375
2023-12-08T12:13:36.241Z,84.375
2023-12-08T12:14:37.970Z,84.375
2023-12-08T12:15:39.253Z,84.375
2023-12-08T12:16:40.756Z,78.75
2023-12-08T12:17:42.278Z,78.75
2023-12-08T12:18:43.627Z,73.125
2023-12-08T12:19:44.118Z,67.5
2023-12-08T12:20:45.491Z,67.5
2023-12-08T12:21:46.718Z,67.5
2023-12-08T12:22:48.227Z,67.5
2023-12-08T12:23:50.240Z,73.125
2023-12-08T12:25:22.008Z,73.125
2023-12-08T12:26:23.042Z,73.125
2023-12-08T12:27:24.501Z,67.5
2023-12-08T12:28:25.547Z,67.5
2023-12-08T12:29:26.748Z,61.875
2023-12-08T12:30:28.330Z,61.875
2023-12-08T12:31:29.729Z,56.25
2023-12-08T12:32:30.988Z,56.25
2023-12-08T12:34:33.589Z,50.625
2023-12-08T12:35:36.572Z,50.625
2023-12-08T12:36:36.110Z,50.625
2023-12-08T12:37:36.608Z,50.625
2023-12-08T12:38:38.428Z,50.625
2023-12-08T12:39:39.733Z,50.625
2023-12-08T12:40:41.762Z,50.625
2023-12-08T12:41:42.289Z,50.625
2023-12-08T12:42:43.843Z,50.625
2023-12-08T12:43:44.983Z,50.625
2023-12-08T12:44:46.862Z,50.625
2023-12-08T12:45:48.021Z,50.625
2023-12-08T12:47:21.275Z,50.625
2023-12-08T12:48:23.168Z,50.625
2023-12-08T12:49:24.364Z,56.25
2023-12-08T12:50:25.756Z,50.625
2023-12-08T12:51:27.964Z,50.625
2023-12-08T12:52:29.286Z,50.625
2023-12-08T12:53:30.736Z,50.625
2023-12-08T12:54:32.262Z,50.625
2023-12-08T12:55:34.035Z,50.625
2023-12-08T12:56:35.234Z,50.625
2023-12-08T12:57:37.103Z,56.25
2023-12-08T12:58:38.772Z,56.25
2023-12-08T12:59:39.322Z,56.25
2023-12-08T13:00:41.011Z,56.25
2023-12-08T13:01:42.509Z,50.625
2023-12-08T13:02:44.520Z,50.625
2023-12-08T13:03:46.148Z,50.625
2023-12-08T13:04:47.671Z,50.625
2023-12-08T13:06:20.264Z,50.625
2023-12-08T13:07:21.097Z,50.625
2023-12-08T13:08:22.485Z,45
2023-12-08T13:09:24.031Z,39.375
2023-12-08T13:10:25.837Z,39.375
2023-12-08T13:11:27.049Z,39.375
2023-12-08T13:12:28.887Z,39.375
2023-12-08T13:13:30.003Z,39.375
2023-12-08T13:14:31.741Z,39.375
2023-12-08T13:15:32.415Z,45
2023-12-08T13:16:33.897Z,45
2023-12-08T13:17:35.081Z,45
2023-12-08T13:18:37.083Z,45
2023-12-08T13:19:38.194Z,39.375
2023-12-08T13:20:39.834Z,39.375
2023-12-08T13:21:41.059Z,39.375
2023-12-08T13:22:42.740Z,33.75
2023-12-08T13:23:44.029Z,33.75
2023-12-08T13:24:45.652Z,33.75
2023-12-08T13:25:47.116Z,33.75
2023-12-08T13:27:20.317Z,33.75
2023-12-08T13:28:21.766Z,33.75
2023-12-08T13:29:53.828Z,28.125
2023-12-08T13:31:25.221Z,28.125
2023-12-08T13:32:26.734Z,28.125
2023-12-08T13:33:28.184Z,28.125
2023-12-08T13:34:29.363Z,28.125
2023-12-08T13:35:29.773Z,28.125
2023-12-08T13:36:31.376Z,28.125
2023-12-08T13:37:32.476Z,28.125
2023-12-08T13:38:33.481Z,28.125
2023-12-08T13:39:35.741Z,28.125
2023-12-08T13:40:36.963Z,22.5
2023-12-08T13:41:38.923Z,22.5
2023-12-08T13:42:39.954Z,22.5
2023-12-08T13:43:41.896Z,22.5
2023-12-08T13:44:43.018Z,22.5
2023-12-08T13:45:44.844Z,22.5
2023-12-08T13:46:46.164Z,22.5
2023-12-08T13:47:47.924Z,28.125
2023-12-08T13:49:20.708Z,28.125
2023-12-08T13:50:21.897Z,33.75
2023-12-08T13:52:24.750Z,33.75
2023-12-08T13:53:25.486Z,33.75
2023-12-08T13:54:26.126Z,33.75
2023-12-08T13:55:27.484Z,33.75
2023-12-08T13:56:29.475Z,33.75
2023-12-08T13:57:30.269Z,33.75
2023-12-08T13:58:31.503Z,28.125
2023-12-08T13:59:32.749Z,28.125
2023-12-08T14:00:34.596Z,28.125
2023-12-08T14:01:35.753Z,28.125
2023-12-08T14:02:37.622Z,28.125
2023-12-08T14:03:40.351Z,28.125
2023-12-08T14:04:40.758Z,22.5
2023-12-08T14:05:41.107Z,22.5
2023-12-08T14:06:42.532Z,22.5
2023-12-08T14:07:43.944Z,22.5
2023-12-08T14:08:45.031Z,22.5
2023-12-08T14:09:46.853Z,22.5
2023-12-08T14:11:19.243Z,22.5
2023-12-08T14:12:20.773Z,22.5
2023-12-08T14:13:21.205Z,22.5
2023-12-08T14:14:22.851Z,16.875
2023-12-08T14:15:24.104Z,16.875
2023-12-08T14:16:25.877Z,16.875
2023-12-08T14:17:27.229Z,16.875
2023-12-08T14:18:28.491Z,16.875
2023-12-08T14:19:29.430Z,16.875
2023-12-08T14:20:30.600Z,16.875
2023-12-08T14:21:32.521Z,16.875
2023-12-08T14:22:34.009Z,16.875
2023-12-08T14:23:35.975Z,16.875
2023-12-08T14:24:36.961Z,16.875
2023-12-08T14:25:38.397Z,16.875
2023-12-08T14:26:39.495Z,16.875
2023-12-08T14:27:40.514Z,16.875
2023-12-08T14:28:41.918Z,16.875
2023-12-08T14:29:43.042Z,16.875